sensor_id;sensor_type;location;lat;lon;timestamp;pressure;altitude;pressure_sealevel;temperature;humidity
24610;BME280;12758;47.890;11.694;2023-03-01T00:01:49;94250.88;;;-0.73;100.00
24610;BME280;12758;47.890;11.694;2023-03-01T00:04:16;94255.41;;;-0.74;100.00
24610;BME280;12758;47.890;11.694;2023-03-01T00:06:42;94251.66;;;-0.73;100.00
24610;BME280;12758;47.890;11.694;2023-03-01T00:09:12;94241.81;;;-0.72;100.00
24610;BME280;12758;47.890;11.694;2023-03-01T00:11:38;94243.41;;;-0.71;100.00
24610;BME280;12758;47.890;11.694;2023-03-01T00:14:04;94248.75;;;-0.71;100.00
24610;BME280;12758;47.890;11.694;2023-03-01T00:16:33;94247.13;;;-0.72;100.00
24610;BME280;12758;47.890;11.694;2023-03-01T00:18:59;94241.81;;;-0.72;100.00
24610;BME280;12758;47.890;11.694;2023-03-01T00:21:26;94237.28;;;-0.72;100.00
24610;BME280;12758;47.890;11.694;2023-03-01T00:23:52;94241.31;;;-0.69;100.00
24610;BME280;12758;47.890;11.694;2023-03-01T00:26:20;94238.91;;;-0.71;100.00
24610;BME280;12758;47.890;11.694;2023-03-01T00:28:47;94230.66;;;-0.69;100.00
24610;BME280;12758;47.890;11.694;2023-03-01T00:31:15;94222.66;;;-0.69;100.00
24610;BME280;12758;47.890;11.694;2023-03-01T00:33:42;94226.91;;;-0.68;100.00
24610;BME280;12758;47.890;11.694;2023-03-01T00:36:09;94225.31;;;-0.69;100.00
24610;BME280;12758;47.890;11.694;2023-03-01T00:38:36;94229.59;;;-0.68;100.00
24610;BME280;12758;47.890;11.694;2023-03-01T00:41:03;94226.91;;;-0.68;100.00
24610;BME280;12758;47.890;11.694;2023-03-01T00:43:30;94236.56;;;-0.67;100.00
24610;BME280;12758;47.890;11.694;2023-03-01T00:46:00;94231.44;;;-0.68;100.00
24610;BME280;12758;47.890;11.694;2023-03-01T00:48:26;94233.88;;;-0.67;100.00
24610;BME280;12758;47.890;11.694;2023-03-01T00:50:52;94224.81;;;-0.66;100.00
24610;BME280;12758;47.890;11.694;2023-03-01T00:53:18;94220.28;;;-0.65;100.00
24610;BME280;12758;47.890;11.694;2023-03-01T00:55:44;94231.75;;;-0.65;100.00
24610;BME280;12758;47.890;11.694;2023-03-01T00:58:10;94219.50;;;-0.66;100.00
24610;BME280;12758;47.890;11.694;2023-03-01T01:00:37;94215.75;;;-0.65;100.00
24610;BME280;12758;47.890;11.694;2023-03-01T01:03:03;94212.56;;;-0.67;100.00
24610;BME280;12758;47.890;11.694;2023-03-01T01:05:29;94208.84;;;-0.66;100.00
24610;BME280;12758;47.890;11.694;2023-03-01T01:07:56;94204.56;;;-0.67;100.00
24610;BME280;12758;47.890;11.694;2023-03-01T01:10:22;94189.13;;;-0.65;100.00
24610;BME280;12758;47.890;11.694;2023-03-01T01:12:48;94202.44;;;-0.65;100.00
24610;BME280;12758;47.890;11.694;2023-03-01T01:15:14;94193.41;;;-0.64;100.00
24610;BME280;12758;47.890;11.694;2023-03-01T01:17:42;94194.44;;;-0.65;100.00
24610;BME280;12758;47.890;11.694;2023-03-01T01:20:09;94189.13;;;-0.65;100.00
24610;BME280;12758;47.890;11.694;2023-03-01T01:22:35;94190.75;;;-0.64;100.00
24610;BME280;12758;47.890;11.694;2023-03-01T01:25:01;94182.19;;;-0.66;100.00
24610;BME280;12758;47.890;11.694;2023-03-01T01:27:27;94175.56;;;-0.63;100.00
24610;BME280;12758;47.890;11.694;2023-03-01T01:29:55;94167.78;;;-0.65;100.00
24610;BME280;12758;47.890;11.694;2023-03-01T01:32:22;94172.31;;;-0.65;100.00
24610;BME280;12758;47.890;11.694;2023-03-01T01:34:48;94161.94;;;-0.67;100.00
24610;BME280;12758;47.890;11.694;2023-03-01T01:37:14;94164.88;;;-0.63;100.00
24610;BME280;12758;47.890;11.694;2023-03-01T01:39:41;94164.88;;;-0.63;100.00
24610;BME280;12758;47.890;11.694;2023-03-01T01:42:10;94150.19;;;-0.66;100.00
24610;BME280;12758;47.890;11.694;2023-03-01T01:44:40;94145.44;;;-0.64;100.00
24610;BME280;12758;47.890;11.694;2023-03-01T01:47:07;94141.13;;;-0.65;100.00
24610;BME280;12758;47.890;11.694;2023-03-01T01:49:38;94155.03;;;-0.63;100.00
24610;BME280;12758;47.890;11.694;2023-03-01T01:52:09;94148.09;;;-0.64;100.00
24610;BME280;12758;47.890;11.694;2023-03-01T01:54:40;94146.47;;;-0.65;100.00
24610;BME280;12758;47.890;11.694;2023-03-01T01:57:09;94146.47;;;-0.65;100.00
24610;BME280;12758;47.890;11.694;2023-03-01T01:59:36;94149.69;;;-0.63;100.00
24610;BME280;12758;47.890;11.694;2023-03-01T02:02:04;94142.78;;;-0.64;100.00
24610;BME280;12758;47.890;11.694;2023-03-01T02:04:31;94147.03;;;-0.63;100.00
24610;BME280;12758;47.890;11.694;2023-03-01T02:06:59;94137.44;;;-0.64;100.00
24610;BME280;12758;47.890;11.694;2023-03-01T02:09:28;94139.03;;;-0.63;100.00
24610;BME280;12758;47.890;11.694;2023-03-01T02:11:56;94130.47;;;-0.65;100.00
24610;BME280;12758;47.890;11.694;2023-03-01T02:14:22;94135.81;;;-0.65;100.00
24610;BME280;12758;47.890;11.694;2023-03-01T02:16:48;94133.16;;;-0.65;100.00
24610;BME280;12758;47.890;11.694;2023-03-01T02:19:28;94133.94;;;-0.64;100.00
24610;BME280;12758;47.890;11.694;2023-03-01T02:21:59;94134.50;;;-0.62;100.00
24610;BME280;12758;47.890;11.694;2023-03-01T02:24:31;94124.66;;;-0.62;100.00
24610;BME280;12758;47.890;11.694;2023-03-01T02:27:01;94129.97;;;-0.62;100.00
24610;BME280;12758;47.890;11.694;2023-03-01T02:29:27;94119.31;;;-0.62;100.00
24610;BME280;12758;47.890;11.694;2023-03-01T02:31:54;94125.72;;;-0.63;100.00
24610;BME280;12758;47.890;11.694;2023-03-01T02:34:24;94124.66;;;-0.62;100.00
24610;BME280;12758;47.890;11.694;2023-03-01T02:36:52;94125.72;;;-0.63;100.00
24610;BME280;12758;47.890;11.694;2023-03-01T02:39:21;94119.31;;;-0.62;100.00
24610;BME280;12758;47.890;11.694;2023-03-01T02:41:49;94118.50;;;-0.62;100.00
24610;BME280;12758;47.890;11.694;2023-03-01T02:44:17;94124.66;;;-0.62;100.00
24610;BME280;12758;47.890;11.694;2023-03-01T02:46:46;94124.66;;;-0.62;100.00
24610;BME280;12758;47.890;11.694;2023-03-01T02:49:19;94118.28;;;-0.61;100.00
24610;BME280;12758;47.890;11.694;2023-03-01T02:51:50;94122.53;;;-0.60;100.00
24610;BME280;12758;47.890;11.694;2023-03-01T02:54:22;94127.88;;;-0.60;100.00
24610;BME280;12758;47.890;11.694;2023-03-01T02:56:50;94123.34;;;-0.59;100.00
24610;BME280;12758;47.890;11.694;2023-03-01T02:59:17;94124.94;;;-0.58;100.00
24610;BME280;12758;47.890;11.694;2023-03-01T03:01:44;94120.44;;;-0.58;100.00
24610;BME280;12758;47.890;11.694;2023-03-01T03:04:14;94122.53;;;-0.60;100.00
24610;BME280;12758;47.890;11.694;2023-03-01T03:06:42;94116.16;;;-0.59;100.00
24610;BME280;12758;47.890;11.694;2023-03-01T03:09:08;94115.63;;;-0.61;100.00
24610;BME280;12758;47.890;11.694;2023-03-01T03:11:34;94118.81;;;-0.59;100.00
24610;BME280;12758;47.890;11.694;2023-03-01T03:14:02;94114.53;;;-0.60;100.00
24610;BME280;12758;47.890;11.694;2023-03-01T03:16:28;94113.47;;;-0.59;100.00
24610;BME280;12758;47.890;11.694;2023-03-01T03:18:55;94113.47;;;-0.59;100.00
24610;BME280;12758;47.890;11.694;2023-03-01T03:21:30;94113.47;;;-0.59;100.00
24610;BME280;12758;47.890;11.694;2023-03-01T03:23:56;94109.78;;;-0.58;100.00
24610;BME280;12758;47.890;11.694;2023-03-01T03:26:23;94110.28;;;-0.61;100.00
24610;BME280;12758;47.890;11.694;2023-03-01T03:28:49;94117.78;;;-0.58;100.00
24610;BME280;12758;47.890;11.694;2023-03-01T03:31:15;94115.91;;;-0.57;100.00
24610;BME280;12758;47.890;11.694;2023-03-01T03:33:41;94109.50;;;-0.56;100.00
24610;BME280;12758;47.890;11.694;2023-03-01T03:36:08;94109.78;;;-0.58;100.00
24610;BME280;12758;47.890;11.694;2023-03-01T03:38:38;94109.78;;;-0.58;100.00
24610;BME280;12758;47.890;11.694;2023-03-01T03:41:06;94116.72;;;-0.57;100.00
24610;BME280;12758;47.890;11.694;2023-03-01T03:43:34;94104.19;;;-0.56;100.00
24610;BME280;12758;47.890;11.694;2023-03-01T03:46:01;94109.25;;;-0.55;100.00
24610;BME280;12758;47.890;11.694;2023-03-01T03:48:31;94090.06;;;-0.57;100.00
24610;BME280;12758;47.890;11.694;2023-03-01T03:50:57;94097.78;;;-0.55;100.00
24610;BME280;12758;47.890;11.694;2023-03-01T03:53:26;94090.06;;;-0.57;100.00
24610;BME280;12758;47.890;11.694;2023-03-01T03:55:52;94088.47;;;-0.58;100.00
24610;BME280;12758;47.890;11.694;2023-03-01T03:58:19;94097.00;;;-0.56;100.00
24610;BME280;12758;47.890;11.694;2023-03-01T04:00:50;94097.00;;;-0.56;100.00
24610;BME280;12758;47.890;11.694;2023-03-01T04:03:18;94095.38;;;-0.57;100.00
24610;BME280;12758;47.890;11.694;2023-03-01T04:05:45;94096.19;;;-0.56;100.00
24610;BME280;12758;47.890;11.694;2023-03-01T04:08:12;94095.91;;;-0.55;100.00
24610;BME280;12758;47.890;11.694;2023-03-01T04:10:41;94097.00;;;-0.56;100.00
24610;BME280;12758;47.890;11.694;2023-03-01T04:13:09;94091.91;;;-0.57;100.00
24610;BME280;12758;47.890;11.694;2023-03-01T04:15:36;94099.41;;;-0.54;100.00
24610;BME280;12758;47.890;11.694;2023-03-01T04:18:02;94087.91;;;-0.55;100.00
24610;BME280;12758;47.890;11.694;2023-03-01T04:20:31;94089.56;;;-0.54;100.00
24610;BME280;12758;47.890;11.694;2023-03-01T04:23:00;94081.56;;;-0.54;100.00
24610;BME280;12758;47.890;11.694;2023-03-01T04:25:37;94077.25;;;-0.55;100.00
24610;BME280;12758;47.890;11.694;2023-03-01T04:28:05;94074.59;;;-0.55;100.00
24610;BME280;12758;47.890;11.694;2023-03-01T04:30:31;94071.13;;;-0.55;100.00
24610;BME280;12758;47.890;11.694;2023-03-01T04:33:02;94078.88;;;-0.54;100.00
24610;BME280;12758;47.890;11.694;2023-03-01T04:35:29;94075.13;;;-0.58;100.00
24610;BME280;12758;47.890;11.694;2023-03-01T04:37:55;94077.25;;;-0.55;100.00
24610;BME280;12758;47.890;11.694;2023-03-01T04:40:21;94078.88;;;-0.54;100.00
24610;BME280;12758;47.890;11.694;2023-03-01T04:42:47;94079.94;;;-0.55;100.00
24610;BME280;12758;47.890;11.694;2023-03-01T04:45:13;94081.56;;;-0.54;100.00
24610;BME280;12758;47.890;11.694;2023-03-01T04:47:40;94077.25;;;-0.55;100.00
24610;BME280;12758;47.890;11.694;2023-03-01T04:50:07;94077.25;;;-0.55;100.00
24610;BME280;12758;47.890;11.694;2023-03-01T04:52:33;94074.59;;;-0.55;100.00
24610;BME280;12758;47.890;11.694;2023-03-01T04:55:00;94081.56;;;-0.54;100.00
24610;BME280;12758;47.890;11.694;2023-03-01T04:57:25;94078.88;;;-0.54;100.00
24610;BME280;12758;47.890;11.694;2023-03-01T04:59:52;94075.16;;;-0.53;100.00
24610;BME280;12758;47.890;11.694;2023-03-01T05:02:18;94068.75;;;-0.52;100.00
24610;BME280;12758;47.890;11.694;2023-03-01T05:04:44;94065.28;;;-0.52;100.00
24610;BME280;12758;47.890;11.694;2023-03-01T05:07:10;94058.09;;;-0.52;100.00
24610;BME280;12758;47.890;11.694;2023-03-01T05:09:38;94055.44;;;-0.52;100.00
24610;BME280;12758;47.890;11.694;2023-03-01T05:12:04;94062.38;;;-0.51;100.00
24610;BME280;12758;47.890;11.694;2023-03-01T05:14:30;94067.16;;;-0.53;100.00
24610;BME280;12758;47.890;11.694;2023-03-01T05:16:56;94067.72;;;-0.51;100.00
24610;BME280;12758;47.890;11.694;2023-03-01T05:19:29;94071.97;;;-0.50;100.00
24610;BME280;12758;47.890;11.694;2023-03-01T05:21:56;94066.09;;;-0.52;100.00
24610;BME280;12758;47.890;11.694;2023-03-01T05:24:32;94059.97;;;-0.52;100.00
24610;BME280;12758;47.890;11.694;2023-03-01T05:26:59;94060.75;;;-0.52;100.00
24610;BME280;12758;47.890;11.694;2023-03-01T05:29:26;94060.75;;;-0.52;100.00
24610;BME280;12758;47.890;11.694;2023-03-01T05:31:54;94048.47;;;-0.58;100.00
24610;BME280;12758;47.890;11.694;2023-03-01T05:34:23;94055.94;;;-0.55;100.00
24610;BME280;12758;47.890;11.694;2023-03-01T05:36:49;94053.28;;;-0.55;100.00
24610;BME280;12758;47.890;11.694;2023-03-01T05:39:19;94058.59;;;-0.55;100.00
24610;BME280;12758;47.890;11.694;2023-03-01T05:41:45;94050.59;;;-0.55;100.00
24610;BME280;12758;47.890;11.694;2023-03-01T05:44:11;94042.59;;;-0.60;100.00
24610;BME280;12758;47.890;11.694;2023-03-01T05:46:37;94055.41;;;-0.57;100.00
24610;BME280;12758;47.890;11.694;2023-03-01T05:49:03;94049.50;;;-0.59;100.00
24610;BME280;12758;47.890;11.694;2023-03-01T05:51:30;94058.00;;;-0.67;100.00
24610;BME280;12758;47.890;11.694;2023-03-01T05:53:59;94060.03;;;-0.74;100.00
24610;BME280;12758;47.890;11.694;2023-03-01T05:56:25;94050.34;;;-0.85;100.00
24610;BME280;12758;47.890;11.694;2023-03-01T05:58:51;94059.06;;;-0.90;100.00
24610;BME280;12758;47.890;11.694;2023-03-01T06:01:17;94057.75;;;-0.92;100.00
24610;BME280;12758;47.890;11.694;2023-03-01T06:03:43;94055.00;;;-1.03;100.00
24610;BME280;12758;47.890;11.694;2023-03-01T06:06:09;94053.91;;;-1.02;100.00
24610;BME280;12758;47.890;11.694;2023-03-01T06:08:35;94053.34;;;-1.04;100.00
24610;BME280;12758;47.890;11.694;2023-03-01T06:11:02;94059.47;;;-1.03;100.00
24610;BME280;12758;47.890;11.694;2023-03-01T06:13:28;94058.69;;;-1.04;100.00
24610;BME280;12758;47.890;11.694;2023-03-01T06:15:55;94064.81;;;-1.03;100.00
24610;BME280;12758;47.890;11.694;2023-03-01T06:18:21;94053.97;;;-0.97;100.00
24610;BME280;12758;47.890;11.694;2023-03-01T06:20:52;94054.47;;;-1.00;100.00
24610;BME280;12758;47.890;11.694;2023-03-01T06:23:18;94056.59;;;-1.02;100.00
24610;BME280;12758;47.890;11.694;2023-03-01T06:25:44;94052.06;;;-1.01;100.00
24610;BME280;12758;47.890;11.694;2023-03-01T06:28:11;94054.84;;;-1.13;100.00
24610;BME280;12758;47.890;11.694;2023-03-01T06:30:36;94057.53;;;-1.13;100.00
24610;BME280;12758;47.890;11.694;2023-03-01T06:33:03;94058.09;;;-1.11;100.00
24610;BME280;12758;47.890;11.694;2023-03-01T06:35:29;94063.09;;;-1.14;100.00
24610;BME280;12758;47.890;11.694;2023-03-01T06:37:55;94047.13;;;-1.14;100.00
24610;BME280;12758;47.890;11.694;2023-03-01T06:40:22;94050.53;;;-1.19;100.00
24610;BME280;12758;47.890;11.694;2023-03-01T06:42:49;94062.34;;;-1.10;100.00
24610;BME280;12758;47.890;11.694;2023-03-01T06:45:17;94055.28;;;-0.99;100.00
24610;BME280;12758;47.890;11.694;2023-03-01T06:47:44;94062.50;;;-0.95;100.00
24610;BME280;12758;47.890;11.694;2023-03-01T06:50:10;94071.38;;;-0.89;100.00
24610;BME280;12758;47.890;11.694;2023-03-01T06:52:36;94071.06;;;-0.92;100.00
24610;BME280;12758;47.890;11.694;2023-03-01T06:55:03;94069.59;;;-1.05;100.00
24610;BME280;12758;47.890;11.694;2023-03-01T06:57:29;94067.06;;;-1.17;100.00
24610;BME280;12758;47.890;11.694;2023-03-01T06:59:55;94071.81;;;-1.19;100.00
24610;BME280;12758;47.890;11.694;2023-03-01T07:02:22;94070.19;;;-1.25;100.00
24610;BME280;12758;47.890;11.694;2023-03-01T07:04:49;94067.00;;;-1.22;100.00
24610;BME280;12758;47.890;11.694;2023-03-01T07:07:15;94059.38;;;-1.13;100.00
24610;BME280;12758;47.890;11.694;2023-03-01T07:09:43;94060.69;;;-1.16;100.00
24610;BME280;12758;47.890;11.694;2023-03-01T07:12:09;94061.50;;;-1.15;100.00
24610;BME280;12758;47.890;11.694;2023-03-01T07:14:35;94056.97;;;-1.15;100.00
24610;BME280;12758;47.890;11.694;2023-03-01T07:17:01;94066.00;;;-1.16;100.00
24610;BME280;12758;47.890;11.694;2023-03-01T07:19:27;94064.41;;;-1.17;100.00
24610;BME280;12758;47.890;11.694;2023-03-01T07:21:53;94059.56;;;-1.20;100.00
24610;BME280;12758;47.890;11.694;2023-03-01T07:24:21;94054.81;;;-1.18;100.00
24610;BME280;12758;47.890;11.694;2023-03-01T07:26:48;94059.06;;;-1.17;100.00
24610;BME280;12758;47.890;11.694;2023-03-01T07:29:14;94059.38;;;-1.13;100.00
24610;BME280;12758;47.890;11.694;2023-03-01T07:31:40;94067.63;;;-1.15;100.00
24610;BME280;12758;47.890;11.694;2023-03-01T07:34:06;94069.22;;;-1.14;100.00
24610;BME280;12758;47.890;11.694;2023-03-01T07:36:33;94068.13;;;-1.18;100.00
24610;BME280;12758;47.890;11.694;2023-03-01T07:38:59;94071.00;;;-1.25;100.00
24610;BME280;12758;47.890;11.694;2023-03-01T07:41:27;94066.19;;;-1.23;100.00
24610;BME280;12758;47.890;11.694;2023-03-01T07:43:53;94068.44;;;-1.14;100.00
24610;BME280;12758;47.890;11.694;2023-03-01T07:46:19;94059.88;;;-1.17;100.00
24610;BME280;12758;47.890;11.694;2023-03-01T07:48:46;94052.75;;;-1.11;100.00
24610;BME280;12758;47.890;11.694;2023-03-01T07:51:12;94054.31;;;-1.15;100.00
24610;BME280;12758;47.890;11.694;2023-03-01T07:53:39;94062.91;;;-1.08;100.00
24610;BME280;12758;47.890;11.694;2023-03-01T07:56:06;94058.31;;;-1.12;100.00
24610;BME280;12758;47.890;11.694;2023-03-01T07:58:34;94055.66;;;-1.12;100.00
24610;BME280;12758;47.890;11.694;2023-03-01T08:01:01;94047.38;;;-1.16;100.00
24610;BME280;12758;47.890;11.694;2023-03-01T08:03:27;94050.53;;;-1.19;100.00
24610;BME280;12758;47.890;11.694;2023-03-01T08:05:53;94047.44;;;-1.11;100.00
24610;BME280;12758;47.890;11.694;2023-03-01T08:08:19;94049.59;;;-1.08;100.00
24610;BME280;12758;47.890;11.694;2023-03-01T08:10:45;94048.72;;;-1.13;100.00
24610;BME280;12758;47.890;11.694;2023-03-01T08:13:11;94046.34;;;-1.15;100.00
24610;BME280;12758;47.890;11.694;2023-03-01T08:15:37;94060.19;;;-1.13;100.00
24610;BME280;12758;47.890;11.694;2023-03-01T08:18:03;94051.66;;;-1.15;100.00
24610;BME280;12758;47.890;11.694;2023-03-01T08:20:29;94053.75;;;-1.17;100.00
24610;BME280;12758;47.890;11.694;2023-03-01T08:22:57;94047.81;;;-1.24;100.00
24610;BME280;12758;47.890;11.694;2023-03-01T08:25:23;94052.09;;;-1.23;100.00
24610;BME280;12758;47.890;11.694;2023-03-01T08:27:50;94048.38;;;-1.22;100.00
24610;BME280;12758;47.890;11.694;2023-03-01T08:30:16;94043.09;;;-1.17;100.00
24610;BME280;12758;47.890;11.694;2023-03-01T08:32:42;94041.00;;;-1.15;100.00
24610;BME280;12758;47.890;11.694;2023-03-01T08:35:08;94034.13;;;-1.11;100.00
24610;BME280;12758;47.890;11.694;2023-03-01T08:37:34;94024.06;;;-1.04;100.00
24610;BME280;12758;47.890;11.694;2023-03-01T08:40:00;94021.41;;;-1.04;100.00
24610;BME280;12758;47.890;11.694;2023-03-01T08:42:26;94023.03;;;-1.03;100.00
24610;BME280;12758;47.890;11.694;2023-03-01T08:44:53;94028.34;;;-1.03;100.00
24610;BME280;12758;47.890;11.694;2023-03-01T08:47:19;94026.22;;;-1.01;100.00
24610;BME280;12758;47.890;11.694;2023-03-01T08:49:45;94020.38;;;-1.03;100.00
24610;BME280;12758;47.890;11.694;2023-03-01T08:52:11;94026.72;;;-1.04;100.00
24610;BME280;12758;47.890;11.694;2023-03-01T08:54:37;94025.63;;;-1.08;100.00
24610;BME280;12758;47.890;11.694;2023-03-01T08:57:03;94024.03;;;-1.09;100.00
24610;BME280;12758;47.890;11.694;2023-03-01T08:59:29;94015.28;;;-1.04;100.00
24610;BME280;12758;47.890;11.694;2023-03-01T09:01:56;94015.88;;;-0.97;100.00
24610;BME280;12758;47.890;11.694;2023-03-01T09:04:22;94015.63;;;-0.96;100.00
24610;BME280;12758;47.890;11.694;2023-03-01T09:06:48;94016.16;;;-0.94;100.00
24610;BME280;12758;47.890;11.694;2023-03-01T09:09:16;94017.00;;;-0.93;100.00
24610;BME280;12758;47.890;11.694;2023-03-01T09:11:42;94016.38;;;-1.00;100.00
24610;BME280;12758;47.890;11.694;2023-03-01T09:14:08;94013.16;;;-1.02;100.00
24610;BME280;12758;47.890;11.694;2023-03-01T09:16:34;94003.25;;;-1.07;100.00
24610;BME280;12758;47.890;11.694;2023-03-01T09:19:02;94000.59;;;-1.07;100.00
24610;BME280;12758;47.890;11.694;2023-03-01T09:21:28;94003.34;;;-0.97;100.00
24610;BME280;12758;47.890;11.694;2023-03-01T09:23:55;93991.66;;;-0.96;100.00
24610;BME280;12758;47.890;11.694;2023-03-01T09:26:22;93991.09;;;-0.98;100.00
24610;BME280;12758;47.890;11.694;2023-03-01T09:28:50;93994.81;;;-0.99;100.00
24610;BME280;12758;47.890;11.694;2023-03-01T09:31:18;93996.97;;;-0.96;100.00
24610;BME280;12758;47.890;11.694;2023-03-01T09:33:46;93999.88;;;-0.97;100.00
24610;BME280;12758;47.890;11.694;2023-03-01T09:36:14;93992.75;;;-0.91;100.00
24610;BME280;12758;47.890;11.694;2023-03-01T09:38:40;93998.13;;;-0.86;100.00
24610;BME280;12758;47.890;11.694;2023-03-01T09:41:10;93994.63;;;-0.87;100.00
24610;BME280;12758;47.890;11.694;2023-03-01T09:43:40;93996.00;;;-0.84;100.00
24610;BME280;12758;47.890;11.694;2023-03-01T09:46:10;93997.56;;;-0.88;100.00
24610;BME280;12758;47.890;11.694;2023-03-01T09:48:41;94000.28;;;-0.83;100.00
24610;BME280;12758;47.890;11.694;2023-03-01T09:51:12;94006.63;;;-0.89;100.00
24610;BME280;12758;47.890;11.694;2023-03-01T09:53:41;93999.13;;;-0.92;100.00
24610;BME280;12758;47.890;11.694;2023-03-01T09:56:12;94003.91;;;-0.95;100.00
24610;BME280;12758;47.890;11.694;2023-03-01T09:58:46;94003.34;;;-0.97;100.00
24610;BME280;12758;47.890;11.694;2023-03-01T10:01:25;93999.09;;;-0.98;100.00
24610;BME280;12758;47.890;11.694;2023-03-01T10:04:23;94002.81;;;-0.99;100.00
24610;BME280;12758;47.890;11.694;2023-03-01T10:06:56;94002.53;;;-0.97;100.00
24610;BME280;12758;47.890;11.694;2023-03-01T10:09:26;93995.63;;;-0.98;100.00
24610;BME280;12758;47.890;11.694;2023-03-01T10:11:54;93997.78;;;-0.95;100.00
24610;BME280;12758;47.890;11.694;2023-03-01T10:14:27;93990.59;;;-0.95;100.00
24610;BME280;12758;47.890;11.694;2023-03-01T10:16:57;93999.66;;;-0.90;100.00
24610;BME280;12758;47.890;11.694;2023-03-01T10:19:30;93983.69;;;-0.90;100.00
24610;BME280;12758;47.890;11.694;2023-03-01T10:21:57;93996.78;;;-0.89;100.00
24610;BME280;12758;47.890;11.694;2023-03-01T10:24:27;94000.78;;;-0.86;100.00
24610;BME280;12758;47.890;11.694;2023-03-01T10:26:57;93999.16;;;-0.87;100.00
24610;BME280;12758;47.890;11.694;2023-03-01T10:29:26;93999.66;;;-0.90;100.00
24610;BME280;12758;47.890;11.694;2023-03-01T10:31:55;93993.34;;;-0.84;100.00
24610;BME280;12758;47.890;11.694;2023-03-01T10:34:27;94001.31;;;-0.89;100.00
24610;BME280;12758;47.890;11.694;2023-03-01T10:36:56;93981.59;;;-0.88;100.00
24610;BME280;12758;47.890;11.694;2023-03-01T10:39:25;93992.81;;;-0.86;100.00
24610;BME280;12758;47.890;11.694;2023-03-01T10:41:59;93976.25;;;-0.88;100.00
24610;BME280;12758;47.890;11.694;2023-03-01T10:44:44;93973.03;;;-0.90;100.00
24610;BME280;12758;47.890;11.694;2023-03-01T10:47:18;93977.34;;;-0.84;100.00
24610;BME280;12758;47.890;11.694;2023-03-01T10:49:55;93967.81;;;-0.80;100.00
24610;BME280;12758;47.890;11.694;2023-03-01T10:52:23;93967.28;;;-0.77;100.00
24610;BME280;12758;47.890;11.694;2023-03-01T10:54:52;93955.31;;;-0.75;100.00
24610;BME280;12758;47.890;11.694;2023-03-01T10:57:34;93951.34;;;-0.72;100.00
24610;BME280;12758;47.890;11.694;2023-03-01T11:00:26;93949.19;;;-0.75;100.00
24610;BME280;12758;47.890;11.694;2023-03-01T11:03:11;93940.13;;;-0.74;100.00
24610;BME280;12758;47.890;11.694;2023-03-01T11:05:50;93934.78;;;-0.74;100.00
24610;BME280;12758;47.890;11.694;2023-03-01T11:08:29;93929.47;;;-0.74;100.00
24610;BME280;12758;47.890;11.694;2023-03-01T11:13:56;93928.44;;;-0.68;100.00
24610;BME280;12758;47.890;11.694;2023-03-01T11:16:24;93926.56;;;-0.67;100.00
24610;BME280;12758;47.890;11.694;2023-03-01T11:18:57;93920.72;;;-0.69;100.00
24610;BME280;12758;47.890;11.694;2023-03-01T11:21:23;93928.44;;;-0.68;100.00
24610;BME280;12758;47.890;11.694;2023-03-01T11:23:50;93914.06;;;-0.67;100.00
24610;BME280;12758;47.890;11.694;2023-03-01T11:26:17;93924.22;;;-0.64;100.00
24610;BME280;12758;47.890;11.694;2023-03-01T11:28:44;93910.34;;;-0.66;100.00
24610;BME280;12758;47.890;11.694;2023-03-01T11:31:15;93904.50;;;-0.63;100.00
24610;BME280;12758;47.890;11.694;2023-03-01T11:33:44;93908.75;;;-0.62;100.00
24610;BME280;12758;47.890;11.694;2023-03-01T11:36:16;93895.19;;;-0.60;100.00
24610;BME280;12758;47.890;11.694;2023-03-01T11:38:47;93900.81;;;-0.57;100.00
24610;BME280;12758;47.890;11.694;2023-03-01T11:41:15;93907.22;;;-0.53;100.00
24610;BME280;12758;47.890;11.694;2023-03-01T11:43:47;93908.25;;;-0.59;100.00
24610;BME280;12758;47.890;11.694;2023-03-01T11:46:36;93908.53;;;-0.60;100.00
24610;BME280;12758;47.890;11.694;2023-03-01T11:49:17;93909.88;;;-0.58;100.00
24610;BME280;12758;47.890;11.694;2023-03-01T11:51:53;93904.00;;;-0.60;100.00
24610;BME280;12758;47.890;11.694;2023-03-01T11:54:30;93898.66;;;-0.55;100.00
24610;BME280;12758;47.890;11.694;2023-03-01T11:57:01;93894.44;;;-0.51;100.00
24610;BME280;12758;47.890;11.694;2023-03-01T11:59:51;93890.47;;;-0.48;100.00
24610;BME280;12758;47.890;11.694;2023-03-01T12:02:36;93888.06;;;-0.50;100.00
24610;BME280;12758;47.890;11.694;2023-03-01T12:05:15;93884.81;;;-0.52;100.00
24610;BME280;12758;47.890;11.694;2023-03-01T12:07:48;93892.06;;;-0.47;100.00
24610;BME280;12758;47.890;11.694;2023-03-01T12:10:21;93885.41;;;-0.44;100.00
24610;BME280;12758;47.890;11.694;2023-03-01T12:12:56;93881.16;;;-0.40;100.00
24610;BME280;12758;47.890;11.694;2023-03-01T12:15:45;93883.56;;;-0.39;100.00
24610;BME280;12758;47.890;11.694;2023-03-01T12:18:44;93880.13;;;-0.34;100.00
24610;BME280;12758;47.890;11.694;2023-03-01T12:21:19;93880.94;;;-0.34;100.00
24610;BME280;12758;47.890;11.694;2023-03-01T12:24:10;93872.97;;;-0.29;100.00
24610;BME280;12758;47.890;11.694;2023-03-01T12:26:42;93864.69;;;-0.27;100.00
24610;BME280;12758;47.890;11.694;2023-03-01T12:29:19;93859.13;;;-0.26;100.00
24610;BME280;12758;47.890;11.694;2023-03-01T12:32:13;93869.47;;;-0.29;100.00
24610;BME280;12758;47.890;11.694;2023-03-01T12:35:05;93880.13;;;-0.34;100.00
24610;BME280;12758;47.890;11.694;2023-03-01T12:37:46;93876.41;;;-0.33;100.00
24610;BME280;12758;47.890;11.694;2023-03-01T12:40:27;93882.56;;;-0.28;100.00
24610;BME280;12758;47.890;11.694;2023-03-01T12:42:59;93881.22;;;-0.30;100.00
24610;BME280;12758;47.890;11.694;2023-03-01T12:45:50;93889.25;;;-0.25;100.00
24610;BME280;12758;47.890;11.694;2023-03-01T12:48:26;93873.25;;;-0.20;100.00
24610;BME280;12758;47.890;11.694;2023-03-01T12:50:58;93865.78;;;-0.23;100.00
24610;BME280;12758;47.890;11.694;2023-03-01T12:53:27;93860.72;;;-0.19;100.00